Aérodrome :
LOGIN :

S'inscrire | Disclaimer

   EN    FR    IT 

 










Légende :    VFR   VFR Marginal   IFR   IFR Intensif   IFR Très Intensif
Visi : 
Plafond : 
>= 8 km
>= 3000ft
5 à 8 km
1000 à 3000 ft
1500m à 5 km
500 à 1000 ft
800 à 1500m
200 à 500 ft
< 800m
< 200 ft
Symboles :   Orages  Brouillard  Fortes neiges  Fortes précipitations  Vent > 20 kt
SIGMETs :   Divers  Orages  Givrage  Turbulence  Onde Orograph.  Cendres Volcan.







- Altitude de l'aérodrome : 3368 ft


LSGC - Les Eplatures

DERNIER METAR :
  • 191950Z AUTO 00000KT CAVOK 07/04 Q1016

METARs EXPIRÉS :
  • 191920Z AUTO 00000KT CAVOK 08/05 Q1015
  • 191850Z AUTO 00000KT 9999 NCD 08/05 Q1016
  • 191820Z AUTO 00000KT 9999 NSC 09/05 Q1016
  • 191750Z AUTO 00000KT 9999 NCD 09/05 Q1016
  • 191720Z AUTO 00000KT 9999 NSC 11/06 Q1015

TAF TAF LSGC
Valide du 19 à 15h jusqu'au 20 à 00h UTC


191425Z 1915/1924 VRB03KT CAVOK
Pas de NOTAMs connus pour ce terrain.



MET'MAP, la Météo Aéronautique d'un coup d'oeil ! - Copyright ORBIFLY Décembre 2007 - Disclaimer

ORBIFLY MET'MAP TEAM :

Programmation & Développement : Alexandra Zaïnal
Conception & Développement : Baudouin d'Aumeries
Co-Programmation & Développement : Marc-Olivier Méhu
Soutien technique & logistique : Manuel Goepfert

Contact : metmap@orbifly.com




SOURCES & CREDITS :

   NOAA